sensor_id;sensor_type;location;lat;lon;timestamp;P1;durP1;ratioP1;P2;durP2;ratioP2
2940;SDS011;1480;51.456;6.670;2023-01-26T00:02:21;93.73;;;44.23;;
2940;SDS011;1480;51.456;6.670;2023-01-26T00:04:48;97.53;;;43.77;;
2940;SDS011;1480;51.456;6.670;2023-01-26T00:07:15;94.70;;;43.00;;
2940;SDS011;1480;51.456;6.670;2023-01-26T00:09:42;94.17;;;43.77;;
2940;SDS011;1480;51.456;6.670;2023-01-26T00:12:10;98.80;;;44.07;;
2940;SDS011;1480;51.456;6.670;2023-01-26T00:14:37;106.80;;;48.47;;
2940;SDS011;1480;51.456;6.670;2023-01-26T00:17:16;105.13;;;47.20;;
2940;SDS011;1480;51.456;6.670;2023-01-26T00:19:54;102.27;;;46.67;;
2940;SDS011;1480;51.456;6.670;2023-01-26T00:22:23;98.27;;;46.00;;
2940;SDS011;1480;51.456;6.670;2023-01-26T00:24:51;103.20;;;45.17;;
2940;SDS011;1480;51.456;6.670;2023-01-26T00:27:19;98.37;;;45.57;;
2940;SDS011;1480;51.456;6.670;2023-01-26T00:29:46;113.60;;;46.90;;
2940;SDS011;1480;51.456;6.670;2023-01-26T00:32:13;122.30;;;49.10;;
2940;SDS011;1480;51.456;6.670;2023-01-26T00:34:40;92.60;;;44.40;;
2940;SDS011;1480;51.456;6.670;2023-01-26T00:37:09;103.90;;;46.60;;
2940;SDS011;1480;51.456;6.670;2023-01-26T00:39:36;97.50;;;44.80;;
2940;SDS011;1480;51.456;6.670;2023-01-26T00:42:03;99.23;;;46.93;;
2940;SDS011;1480;51.456;6.670;2023-01-26T00:44:39;99.67;;;48.50;;
2940;SDS011;1480;51.456;6.670;2023-01-26T00:47:07;94.47;;;44.63;;
2940;SDS011;1480;51.456;6.670;2023-01-26T00:49:36;90.77;;;43.97;;
2940;SDS011;1480;51.456;6.670;2023-01-26T00:52:03;87.90;;;44.80;;
2940;SDS011;1480;51.456;6.670;2023-01-26T00:54:31;100.60;;;46.57;;
2940;SDS011;1480;51.456;6.670;2023-01-26T00:56:58;85.60;;;42.70;;
2940;SDS011;1480;51.456;6.670;2023-01-26T00:59:25;92.33;;;44.17;;
2940;SDS011;1480;51.456;6.670;2023-01-26T01:01:53;103.63;;;46.13;;
2940;SDS011;1480;51.456;6.670;2023-01-26T01:04:22;108.83;;;49.20;;
2940;SDS011;1480;51.456;6.670;2023-01-26T01:06:49;101.00;;;45.77;;
2940;SDS011;1480;51.456;6.670;2023-01-26T01:09:16;96.77;;;43.03;;
2940;SDS011;1480;51.456;6.670;2023-01-26T01:11:43;102.33;;;47.27;;
2940;SDS011;1480;51.456;6.670;2023-01-26T01:14:12;96.80;;;45.00;;
2940;SDS011;1480;51.456;6.670;2023-01-26T01:16:40;95.97;;;45.80;;
2940;SDS011;1480;51.456;6.670;2023-01-26T01:19:09;102.10;;;48.90;;
2940;SDS011;1480;51.456;6.670;2023-01-26T01:21:39;93.23;;;45.13;;
2940;SDS011;1480;51.456;6.670;2023-01-26T01:24:08;91.57;;;44.90;;
2940;SDS011;1480;51.456;6.670;2023-01-26T01:26:36;103.73;;;44.30;;
2940;SDS011;1480;51.456;6.670;2023-01-26T01:29:04;94.50;;;46.80;;
2940;SDS011;1480;51.456;6.670;2023-01-26T01:31:31;93.70;;;42.23;;
2940;SDS011;1480;51.456;6.670;2023-01-26T01:33:58;94.93;;;45.57;;
2940;SDS011;1480;51.456;6.670;2023-01-26T01:36:26;89.97;;;43.73;;
2940;SDS011;1480;51.456;6.670;2023-01-26T01:38:55;84.23;;;40.63;;
2940;SDS011;1480;51.456;6.670;2023-01-26T01:41:22;98.07;;;43.87;;
2940;SDS011;1480;51.456;6.670;2023-01-26T01:43:51;84.00;;;42.77;;
2940;SDS011;1480;51.456;6.670;2023-01-26T01:46:33;86.77;;;40.63;;
2940;SDS011;1480;51.456;6.670;2023-01-26T01:49:02;86.20;;;42.43;;
2940;SDS011;1480;51.456;6.670;2023-01-26T01:51:34;85.17;;;40.40;;
2940;SDS011;1480;51.456;6.670;2023-01-26T01:54:07;89.27;;;40.40;;
2940;SDS011;1480;51.456;6.670;2023-01-26T01:56:38;90.20;;;43.10;;
2940;SDS011;1480;51.456;6.670;2023-01-26T01:59:10;83.73;;;40.30;;
2940;SDS011;1480;51.456;6.670;2023-01-26T02:01:38;87.93;;;43.67;;
2940;SDS011;1480;51.456;6.670;2023-01-26T02:04:05;83.97;;;42.97;;
2940;SDS011;1480;51.456;6.670;2023-01-26T02:06:39;88.10;;;38.67;;
2940;SDS011;1480;51.456;6.670;2023-01-26T02:09:11;88.43;;;39.67;;
2940;SDS011;1480;51.456;6.670;2023-01-26T02:11:59;86.10;;;41.40;;
2940;SDS011;1480;51.456;6.670;2023-01-26T02:14:28;86.73;;;40.97;;
2940;SDS011;1480;51.456;6.670;2023-01-26T02:16:55;82.80;;;42.23;;
2940;SDS011;1480;51.456;6.670;2023-01-26T02:19:24;82.07;;;40.27;;
2940;SDS011;1480;51.456;6.670;2023-01-26T02:21:59;87.03;;;42.20;;
2940;SDS011;1480;51.456;6.670;2023-01-26T02:24:33;78.80;;;36.80;;
2940;SDS011;1480;51.456;6.670;2023-01-26T02:27:05;85.93;;;43.20;;
2940;SDS011;1480;51.456;6.670;2023-01-26T02:29:33;95.67;;;43.90;;
2940;SDS011;1480;51.456;6.670;2023-01-26T02:31:59;83.53;;;41.43;;
2940;SDS011;1480;51.456;6.670;2023-01-26T02:34:26;87.63;;;44.13;;
2940;SDS011;1480;51.456;6.670;2023-01-26T02:36:57;87.03;;;40.73;;
2940;SDS011;1480;51.456;6.670;2023-01-26T02:39:26;83.87;;;40.70;;
2940;SDS011;1480;51.456;6.670;2023-01-26T02:42:07;93.40;;;44.03;;
2940;SDS011;1480;51.456;6.670;2023-01-26T02:44:52;82.83;;;41.40;;
2940;SDS011;1480;51.456;6.670;2023-01-26T02:47:19;81.50;;;39.60;;
2940;SDS011;1480;51.456;6.670;2023-01-26T02:49:47;75.13;;;38.93;;
2940;SDS011;1480;51.456;6.670;2023-01-26T02:52:17;83.50;;;39.30;;
2940;SDS011;1480;51.456;6.670;2023-01-26T02:54:52;78.50;;;38.37;;
2940;SDS011;1480;51.456;6.670;2023-01-26T02:57:38;89.10;;;41.90;;
2940;SDS011;1480;51.456;6.670;2023-01-26T03:00:06;84.27;;;40.47;;
2940;SDS011;1480;51.456;6.670;2023-01-26T03:02:36;86.67;;;41.93;;
2940;SDS011;1480;51.456;6.670;2023-01-26T03:05:04;83.03;;;41.33;;
2940;SDS011;1480;51.456;6.670;2023-01-26T03:07:31;89.90;;;43.30;;
2940;SDS011;1480;51.456;6.670;2023-01-26T03:09:58;87.00;;;42.03;;
2940;SDS011;1480;51.456;6.670;2023-01-26T03:12:25;95.80;;;41.77;;
2940;SDS011;1480;51.456;6.670;2023-01-26T03:14:53;99.60;;;42.90;;
2940;SDS011;1480;51.456;6.670;2023-01-26T03:17:34;87.67;;;41.40;;
2940;SDS011;1480;51.456;6.670;2023-01-26T03:20:03;81.10;;;42.57;;
2940;SDS011;1480;51.456;6.670;2023-01-26T03:22:50;88.93;;;41.00;;
2940;SDS011;1480;51.456;6.670;2023-01-26T03:25:35;95.90;;;42.70;;
2940;SDS011;1480;51.456;6.670;2023-01-26T03:28:20;91.73;;;42.60;;
2940;SDS011;1480;51.456;6.670;2023-01-26T03:30:50;86.63;;;41.70;;
2940;SDS011;1480;51.456;6.670;2023-01-26T03:33:19;96.17;;;43.27;;
2940;SDS011;1480;51.456;6.670;2023-01-26T03:35:47;92.90;;;43.73;;
2940;SDS011;1480;51.456;6.670;2023-01-26T03:38:14;83.20;;;40.77;;
2940;SDS011;1480;51.456;6.670;2023-01-26T03:40:45;88.90;;;44.03;;
2940;SDS011;1480;51.456;6.670;2023-01-26T03:43:30;82.47;;;43.87;;
2940;SDS011;1480;51.456;6.670;2023-01-26T03:46:16;82.03;;;40.70;;
2940;SDS011;1480;51.456;6.670;2023-01-26T03:49:02;86.33;;;39.70;;
2940;SDS011;1480;51.456;6.670;2023-01-26T03:51:50;77.20;;;40.30;;
2940;SDS011;1480;51.456;6.670;2023-01-26T03:54:35;75.40;;;39.87;;
2940;SDS011;1480;51.456;6.670;2023-01-26T03:57:19;84.50;;;41.13;;
2940;SDS011;1480;51.456;6.670;2023-01-26T03:59:47;78.40;;;37.47;;
2940;SDS011;1480;51.456;6.670;2023-01-26T04:02:19;72.50;;;39.30;;
2940;SDS011;1480;51.456;6.670;2023-01-26T04:05:07;85.70;;;40.33;;
2940;SDS011;1480;51.456;6.670;2023-01-26T04:08:00;77.43;;;38.30;;
2940;SDS011;1480;51.456;6.670;2023-01-26T04:10:45;73.17;;;36.83;;
2940;SDS011;1480;51.456;6.670;2023-01-26T04:13:12;75.33;;;39.27;;
2940;SDS011;1480;51.456;6.670;2023-01-26T04:16:01;77.63;;;35.53;;
2940;SDS011;1480;51.456;6.670;2023-01-26T04:18:47;75.00;;;35.90;;
2940;SDS011;1480;51.456;6.670;2023-01-26T04:21:32;73.67;;;36.80;;
2940;SDS011;1480;51.456;6.670;2023-01-26T04:24:05;70.63;;;36.23;;
2940;SDS011;1480;51.456;6.670;2023-01-26T04:26:34;77.17;;;36.83;;
2940;SDS011;1480;51.456;6.670;2023-01-26T04:29:06;68.33;;;35.90;;
2940;SDS011;1480;51.456;6.670;2023-01-26T04:31:34;73.73;;;36.60;;
2940;SDS011;1480;51.456;6.670;2023-01-26T04:34:03;80.63;;;38.43;;
2940;SDS011;1480;51.456;6.670;2023-01-26T04:36:31;69.57;;;36.30;;
2940;SDS011;1480;51.456;6.670;2023-01-26T04:38:59;68.03;;;34.20;;
2940;SDS011;1480;51.456;6.670;2023-01-26T04:41:27;74.20;;;36.30;;
2940;SDS011;1480;51.456;6.670;2023-01-26T04:44:02;74.27;;;35.40;;
2940;SDS011;1480;51.456;6.670;2023-01-26T04:46:30;68.57;;;38.47;;
2940;SDS011;1480;51.456;6.670;2023-01-26T04:48:59;72.27;;;36.47;;
2940;SDS011;1480;51.456;6.670;2023-01-26T04:51:27;88.07;;;38.60;;
2940;SDS011;1480;51.456;6.670;2023-01-26T04:53:55;71.33;;;37.40;;
2940;SDS011;1480;51.456;6.670;2023-01-26T04:56:23;73.67;;;37.13;;
2940;SDS011;1480;51.456;6.670;2023-01-26T04:58:52;83.77;;;36.13;;
2940;SDS011;1480;51.456;6.670;2023-01-26T05:01:21;74.10;;;38.50;;
2940;SDS011;1480;51.456;6.670;2023-01-26T05:03:49;68.77;;;33.70;;
2940;SDS011;1480;51.456;6.670;2023-01-26T05:06:16;69.37;;;32.80;;
2940;SDS011;1480;51.456;6.670;2023-01-26T05:08:47;66.17;;;34.00;;
2940;SDS011;1480;51.456;6.670;2023-01-26T05:11:14;62.13;;;34.20;;
2940;SDS011;1480;51.456;6.670;2023-01-26T05:14:00;78.30;;;37.90;;
2940;SDS011;1480;51.456;6.670;2023-01-26T05:16:36;64.50;;;35.10;;
2940;SDS011;1480;51.456;6.670;2023-01-26T05:19:19;74.70;;;36.50;;
2940;SDS011;1480;51.456;6.670;2023-01-26T05:21:53;69.87;;;34.10;;
2940;SDS011;1480;51.456;6.670;2023-01-26T05:24:22;70.27;;;35.90;;
2940;SDS011;1480;51.456;6.670;2023-01-26T05:26:58;65.33;;;31.37;;
2940;SDS011;1480;51.456;6.670;2023-01-26T05:29:39;70.10;;;33.70;;
2940;SDS011;1480;51.456;6.670;2023-01-26T05:32:06;65.47;;;35.40;;
2940;SDS011;1480;51.456;6.670;2023-01-26T05:34:33;72.20;;;34.47;;
2940;SDS011;1480;51.456;6.670;2023-01-26T05:37:01;72.20;;;35.13;;
2940;SDS011;1480;51.456;6.670;2023-01-26T05:39:31;74.40;;;34.60;;
2940;SDS011;1480;51.456;6.670;2023-01-26T05:41:59;76.90;;;35.20;;
2940;SDS011;1480;51.456;6.670;2023-01-26T05:44:38;65.00;;;34.00;;
2940;SDS011;1480;51.456;6.670;2023-01-26T05:47:10;78.23;;;34.30;;
2940;SDS011;1480;51.456;6.670;2023-01-26T05:49:40;72.00;;;33.60;;
2940;SDS011;1480;51.456;6.670;2023-01-26T05:52:12;71.80;;;33.60;;
2940;SDS011;1480;51.456;6.670;2023-01-26T05:54:42;69.87;;;32.73;;
2940;SDS011;1480;51.456;6.670;2023-01-26T05:57:09;72.10;;;32.00;;
2940;SDS011;1480;51.456;6.670;2023-01-26T05:59:42;68.07;;;34.13;;
2940;SDS011;1480;51.456;6.670;2023-01-26T06:02:09;72.57;;;32.47;;
2940;SDS011;1480;51.456;6.670;2023-01-26T06:04:39;64.27;;;34.50;;
2940;SDS011;1480;51.456;6.670;2023-01-26T06:07:06;62.63;;;31.57;;
2940;SDS011;1480;51.456;6.670;2023-01-26T06:09:36;69.57;;;34.13;;
2940;SDS011;1480;51.456;6.670;2023-01-26T06:12:13;61.57;;;33.10;;
2940;SDS011;1480;51.456;6.670;2023-01-26T06:14:50;65.47;;;31.57;;
2940;SDS011;1480;51.456;6.670;2023-01-26T06:17:18;60.43;;;29.43;;
2940;SDS011;1480;51.456;6.670;2023-01-26T06:19:48;61.17;;;29.70;;
2940;SDS011;1480;51.456;6.670;2023-01-26T06:22:16;59.10;;;29.47;;
2940;SDS011;1480;51.456;6.670;2023-01-26T06:24:47;69.27;;;32.30;;
2940;SDS011;1480;51.456;6.670;2023-01-26T06:27:15;58.23;;;28.40;;
2940;SDS011;1480;51.456;6.670;2023-01-26T06:29:46;62.80;;;31.60;;
2940;SDS011;1480;51.456;6.670;2023-01-26T06:32:13;58.23;;;29.90;;
2940;SDS011;1480;51.456;6.670;2023-01-26T06:34:42;60.30;;;31.27;;
2940;SDS011;1480;51.456;6.670;2023-01-26T06:37:09;58.20;;;30.63;;
2940;SDS011;1480;51.456;6.670;2023-01-26T06:39:39;65.63;;;31.37;;
2940;SDS011;1480;51.456;6.670;2023-01-26T06:42:06;61.13;;;30.90;;
2940;SDS011;1480;51.456;6.670;2023-01-26T06:44:35;59.63;;;31.27;;
2940;SDS011;1480;51.456;6.670;2023-01-26T06:47:02;65.70;;;29.33;;
2940;SDS011;1480;51.456;6.670;2023-01-26T06:49:31;56.47;;;27.83;;
2940;SDS011;1480;51.456;6.670;2023-01-26T06:52:02;68.00;;;31.87;;
2940;SDS011;1480;51.456;6.670;2023-01-26T06:54:41;62.77;;;28.90;;
2940;SDS011;1480;51.456;6.670;2023-01-26T06:57:40;64.43;;;30.87;;
2940;SDS011;1480;51.456;6.670;2023-01-26T07:00:28;62.53;;;31.00;;
2940;SDS011;1480;51.456;6.670;2023-01-26T07:03:11;54.80;;;30.40;;
2940;SDS011;1480;51.456;6.670;2023-01-26T07:05:38;55.17;;;28.77;;
2940;SDS011;1480;51.456;6.670;2023-01-26T07:08:05;57.23;;;30.23;;
2940;SDS011;1480;51.456;6.670;2023-01-26T07:10:32;52.53;;;29.30;;
2940;SDS011;1480;51.456;6.670;2023-01-26T07:12:59;58.90;;;32.17;;
2940;SDS011;1480;51.456;6.670;2023-01-26T07:15:29;50.77;;;28.63;;
2940;SDS011;1480;51.456;6.670;2023-01-26T07:17:56;46.73;;;27.17;;
2940;SDS011;1480;51.456;6.670;2023-01-26T07:20:24;59.93;;;32.77;;
2940;SDS011;1480;51.456;6.670;2023-01-26T07:22:51;54.17;;;27.27;;
2940;SDS011;1480;51.456;6.670;2023-01-26T07:25:18;62.07;;;31.17;;
2940;SDS011;1480;51.456;6.670;2023-01-26T07:27:45;56.63;;;28.33;;
2940;SDS011;1480;51.456;6.670;2023-01-26T07:30:12;64.60;;;29.17;;
2940;SDS011;1480;51.456;6.670;2023-01-26T07:32:41;60.30;;;30.20;;
2940;SDS011;1480;51.456;6.670;2023-01-26T07:35:08;50.90;;;27.57;;
2940;SDS011;1480;51.456;6.670;2023-01-26T07:37:35;54.20;;;27.53;;
2940;SDS011;1480;51.456;6.670;2023-01-26T07:40:02;53.77;;;28.87;;
2940;SDS011;1480;51.456;6.670;2023-01-26T07:42:30;62.03;;;27.57;;
2940;SDS011;1480;51.456;6.670;2023-01-26T07:45:03;57.57;;;29.97;;
2940;SDS011;1480;51.456;6.670;2023-01-26T07:47:31;53.77;;;29.53;;
2940;SDS011;1480;51.456;6.670;2023-01-26T07:49:59;55.10;;;28.70;;
2940;SDS011;1480;51.456;6.670;2023-01-26T07:52:26;61.33;;;32.47;;
2940;SDS011;1480;51.456;6.670;2023-01-26T07:54:53;66.57;;;33.97;;
2940;SDS011;1480;51.456;6.670;2023-01-26T07:57:19;60.97;;;30.80;;
2940;SDS011;1480;51.456;6.670;2023-01-26T07:59:46;64.13;;;29.37;;
2940;SDS011;1480;51.456;6.670;2023-01-26T08:02:13;56.27;;;29.00;;
2940;SDS011;1480;51.456;6.670;2023-01-26T08:04:40;64.73;;;32.20;;
2940;SDS011;1480;51.456;6.670;2023-01-26T08:07:08;62.47;;;30.60;;
2940;SDS011;1480;51.456;6.670;2023-01-26T08:09:35;59.80;;;31.67;;
2940;SDS011;1480;51.456;6.670;2023-01-26T08:12:02;58.10;;;27.20;;
2940;SDS011;1480;51.456;6.670;2023-01-26T08:14:29;57.00;;;28.57;;
2940;SDS011;1480;51.456;6.670;2023-01-26T08:16:56;54.97;;;27.77;;
2940;SDS011;1480;51.456;6.670;2023-01-26T08:19:23;49.77;;;26.50;;
2940;SDS011;1480;51.456;6.670;2023-01-26T08:21:50;53.70;;;27.93;;
2940;SDS011;1480;51.456;6.670;2023-01-26T08:24:19;53.47;;;27.60;;
2940;SDS011;1480;51.456;6.670;2023-01-26T08:26:46;61.50;;;29.93;;
2940;SDS011;1480;51.456;6.670;2023-01-26T08:29:13;63.37;;;29.80;;
2940;SDS011;1480;51.456;6.670;2023-01-26T08:31:40;63.03;;;30.07;;
2940;SDS011;1480;51.456;6.670;2023-01-26T08:34:07;58.90;;;30.50;;
2940;SDS011;1480;51.456;6.670;2023-01-26T08:36:34;59.50;;;28.40;;
2940;SDS011;1480;51.456;6.670;2023-01-26T08:39:01;55.60;;;29.47;;
2940;SDS011;1480;51.456;6.670;2023-01-26T08:41:29;60.03;;;27.57;;
2940;SDS011;1480;51.456;6.670;2023-01-26T08:43:57;57.27;;;28.63;;
2940;SDS011;1480;51.456;6.670;2023-01-26T08:46:24;57.67;;;30.13;;
2940;SDS011;1480;51.456;6.670;2023-01-26T08:48:52;56.13;;;30.53;;
2940;SDS011;1480;51.456;6.670;2023-01-26T08:51:19;54.23;;;26.90;;
2940;SDS011;1480;51.456;6.670;2023-01-26T08:53:46;57.30;;;31.03;;
2940;SDS011;1480;51.456;6.670;2023-01-26T08:56:12;56.30;;;28.00;;
2940;SDS011;1480;51.456;6.670;2023-01-26T08:58:41;58.83;;;29.80;;
2940;SDS011;1480;51.456;6.670;2023-01-26T09:01:09;53.87;;;28.97;;
2940;SDS011;1480;51.456;6.670;2023-01-26T09:03:38;50.63;;;28.27;;
2940;SDS011;1480;51.456;6.670;2023-01-26T09:06:06;47.33;;;25.57;;
2940;SDS011;1480;51.456;6.670;2023-01-26T09:08:34;43.30;;;24.07;;
2940;SDS011;1480;51.456;6.670;2023-01-26T09:11:01;45.47;;;22.90;;
2940;SDS011;1480;51.456;6.670;2023-01-26T09:13:30;48.73;;;24.57;;
2940;SDS011;1480;51.456;6.670;2023-01-26T09:15:58;46.63;;;25.13;;
2940;SDS011;1480;51.456;6.670;2023-01-26T09:18:28;50.37;;;25.73;;
2940;SDS011;1480;51.456;6.670;2023-01-26T09:21:00;45.63;;;22.00;;
2940;SDS011;1480;51.456;6.670;2023-01-26T09:23:28;38.13;;;22.47;;
2940;SDS011;1480;51.456;6.670;2023-01-26T09:25:57;43.00;;;21.77;;
2940;SDS011;1480;51.456;6.670;2023-01-26T09:28:24;41.33;;;20.53;;
2940;SDS011;1480;51.456;6.670;2023-01-26T09:30:51;39.83;;;22.00;;
2940;SDS011;1480;51.456;6.670;2023-01-26T09:33:19;42.50;;;21.10;;
2940;SDS011;1480;51.456;6.670;2023-01-26T09:35:47;40.87;;;20.93;;
2940;SDS011;1480;51.456;6.670;2023-01-26T09:38:14;42.93;;;24.73;;
2940;SDS011;1480;51.456;6.670;2023-01-26T09:40:42;42.77;;;23.67;;
2940;SDS011;1480;51.456;6.670;2023-01-26T09:43:19;45.57;;;23.13;;
2940;SDS011;1480;51.456;6.670;2023-01-26T09:45:52;50.73;;;22.87;;
2940;SDS011;1480;51.456;6.670;2023-01-26T09:48:31;42.70;;;20.30;;
2940;SDS011;1480;51.456;6.670;2023-01-26T09:51:07;31.23;;;17.87;;
2940;SDS011;1480;51.456;6.670;2023-01-26T09:53:40;36.13;;;19.77;;
2940;SDS011;1480;51.456;6.670;2023-01-26T09:56:16;35.33;;;19.20;;
2940;SDS011;1480;51.456;6.670;2023-01-26T09:58:46;34.07;;;16.90;;
2940;SDS011;1480;51.456;6.670;2023-01-26T10:01:18;32.97;;;16.90;;
2940;SDS011;1480;51.456;6.670;2023-01-26T10:03:55;29.50;;;16.57;;
2940;SDS011;1480;51.456;6.670;2023-01-26T10:06:29;31.67;;;17.10;;
2940;SDS011;1480;51.456;6.670;2023-01-26T10:09:05;31.33;;;18.00;;
2940;SDS011;1480;51.456;6.670;2023-01-26T10:11:42;29.50;;;16.43;;
2940;SDS011;1480;51.456;6.670;2023-01-26T10:14:12;32.23;;;17.47;;
2940;SDS011;1480;51.456;6.670;2023-01-26T10:16:44;25.10;;;13.67;;
2940;SDS011;1480;51.456;6.670;2023-01-26T10:19:15;30.73;;;18.80;;
2940;SDS011;1480;51.456;6.670;2023-01-26T10:21:48;34.00;;;16.43;;
2940;SDS011;1480;51.456;6.670;2023-01-26T10:24:19;28.13;;;14.67;;
2940;SDS011;1480;51.456;6.670;2023-01-26T10:26:48;23.77;;;14.20;;
2940;SDS011;1480;51.456;6.670;2023-01-26T10:29:17;26.10;;;14.10;;
2940;SDS011;1480;51.456;6.670;2023-01-26T10:31:44;22.70;;;13.87;;
2940;SDS011;1480;51.456;6.670;2023-01-26T10:34:12;23.87;;;14.07;;
2940;SDS011;1480;51.456;6.670;2023-01-26T10:36:43;25.70;;;13.40;;
2940;SDS011;1480;51.456;6.670;2023-01-26T10:39:12;23.97;;;12.40;;
2940;SDS011;1480;51.456;6.670;2023-01-26T10:41:40;23.53;;;13.30;;
2940;SDS011;1480;51.456;6.670;2023-01-26T10:44:23;22.87;;;12.67;;
2940;SDS011;1480;51.456;6.670;2023-01-26T10:47:04;23.13;;;12.90;;
2940;SDS011;1480;51.456;6.670;2023-01-26T10:49:40;22.77;;;14.77;;
2940;SDS011;1480;51.456;6.670;2023-01-26T10:52:10;21.07;;;12.40;;
2940;SDS011;1480;51.456;6.670;2023-01-26T10:54:41;19.90;;;11.63;;
2940;SDS011;1480;51.456;6.670;2023-01-26T10:57:19;25.73;;;13.70;;
2940;SDS011;1480;51.456;6.670;2023-01-26T10:59:52;22.87;;;14.03;;
2940;SDS011;1480;51.456;6.670;2023-01-26T11:02:23;24.90;;;13.83;;
2940;SDS011;1480;51.456;6.670;2023-01-26T11:05:12;23.00;;;13.23;;
2940;SDS011;1480;51.456;6.670;2023-01-26T11:07:41;21.40;;;12.10;;
2940;SDS011;1480;51.456;6.670;2023-01-26T11:10:16;19.20;;;10.67;;
2940;SDS011;1480;51.456;6.670;2023-01-26T11:12:45;27.33;;;12.10;;
2940;SDS011;1480;51.456;6.670;2023-01-26T11:15:16;22.90;;;11.80;;
2940;SDS011;1480;51.456;6.670;2023-01-26T11:17:47;21.00;;;11.53;;
2940;SDS011;1480;51.456;6.670;2023-01-26T11:20:27;22.43;;;12.43;;
2940;SDS011;1480;51.456;6.670;2023-01-26T11:23:08;23.53;;;11.77;;
2940;SDS011;1480;51.456;6.670;2023-01-26T11:25:46;29.80;;;14.43;;
2940;SDS011;1480;51.456;6.670;2023-01-26T11:28:31;24.70;;;12.63;;
2940;SDS011;1480;51.456;6.670;2023-01-26T11:31:15;33.93;;;15.57;;
2940;SDS011;1480;51.456;6.670;2023-01-26T11:33:55;32.73;;;15.60;;
2940;SDS011;1480;51.456;6.670;2023-01-26T11:36:40;32.73;;;15.13;;
2940;SDS011;1480;51.456;6.670;2023-01-26T11:39:15;29.23;;;14.60;;
2940;SDS011;1480;51.456;6.670;2023-01-26T11:41:53;32.43;;;14.80;;
2940;SDS011;1480;51.456;6.670;2023-01-26T11:44:45;28.00;;;14.90;;
2940;SDS011;1480;51.456;6.670;2023-01-26T11:47:30;28.00;;;14.37;;
2940;SDS011;1480;51.456;6.670;2023-01-26T11:50:25;23.30;;;12.97;;
2940;SDS011;1480;51.456;6.670;2023-01-26T11:53:04;25.70;;;13.67;;
2940;SDS011;1480;51.456;6.670;2023-01-26T11:55:48;30.23;;;13.77;;
2940;SDS011;1480;51.456;6.670;2023-01-26T11:58:26;30.43;;;14.70;;
2940;SDS011;1480;51.456;6.670;2023-01-26T12:00:58;31.63;;;15.00;;
2940;SDS011;1480;51.456;6.670;2023-01-26T12:03:29;28.23;;;13.67;;
2940;SDS011;1480;51.456;6.670;2023-01-26T12:06:04;24.97;;;13.00;;
2940;SDS011;1480;51.456;6.670;2023-01-26T12:08:35;22.27;;;13.33;;
2940;SDS011;1480;51.456;6.670;2023-01-26T12:11:07;28.23;;;14.17;;
2940;SDS011;1480;51.456;6.670;2023-01-26T12:13:51;27.50;;;13.83;;
2940;SDS011;1480;51.456;6.670;2023-01-26T12:16:28;25.87;;;13.43;;
2940;SDS011;1480;51.456;6.670;2023-01-26T12:19:02;25.67;;;13.67;;
2940;SDS011;1480;51.456;6.670;2023-01-26T12:21:38;30.90;;;14.70;;
2940;SDS011;1480;51.456;6.670;2023-01-26T12:24:11;26.80;;;13.70;;
2940;SDS011;1480;51.456;6.670;2023-01-26T12:26:46;27.27;;;13.13;;
2940;SDS011;1480;51.456;6.670;2023-01-26T12:29:16;26.53;;;14.80;;
2940;SDS011;1480;51.456;6.670;2023-01-26T12:31:47;29.73;;;15.33;;
2940;SDS011;1480;51.456;6.670;2023-01-26T12:34:18;26.13;;;14.00;;
2940;SDS011;1480;51.456;6.670;2023-01-26T12:36:50;31.63;;;15.90;;
2940;SDS011;1480;51.456;6.670;2023-01-26T12:39:32;26.83;;;15.10;;
2940;SDS011;1480;51.456;6.670;2023-01-26T12:44:55;28.23;;;15.77;;
2940;SDS011;1480;51.456;6.670;2023-01-26T12:47:27;31.87;;;17.50;;
2940;SDS011;1480;51.456;6.670;2023-01-26T12:49:59;29.57;;;16.87;;
2940;SDS011;1480;51.456;6.670;2023-01-26T12:52:34;34.07;;;18.40;;
2940;SDS011;1480;51.456;6.670;2023-01-26T12:55:10;35.93;;;18.87;;
2940;SDS011;1480;51.456;6.670;2023-01-26T12:57:43;42.73;;;18.67;;
2940;SDS011;1480;51.456;6.670;2023-01-26T13:00:16;37.70;;;20.23;;
2940;SDS011;1480;51.456;6.670;2023-01-26T13:02:47;36.07;;;20.17;;
2940;SDS011;1480;51.456;6.670;2023-01-26T13:05:25;45.40;;;23.07;;
2940;SDS011;1480;51.456;6.670;2023-01-26T13:07:54;42.00;;;23.27;;
2940;SDS011;1480;51.456;6.670;2023-01-26T13:10:23;47.80;;;22.83;;
2940;SDS011;1480;51.456;6.670;2023-01-26T13:12:55;49.67;;;22.77;;
2940;SDS011;1480;51.456;6.670;2023-01-26T13:15:25;51.40;;;20.73;;
2940;SDS011;1480;51.456;6.670;2023-01-26T13:17:57;42.60;;;20.23;;
2940;SDS011;1480;51.456;6.670;2023-01-26T13:29:26;53.37;;;21.37;;
2940;SDS011;1480;51.456;6.670;2023-01-26T13:31:57;58.07;;;20.50;;
2940;SDS011;1480;51.456;6.670;2023-01-26T13:34:25;52.03;;;21.50;;
2940;SDS011;1480;51.456;6.670;2023-01-26T13:36:55;50.33;;;24.00;;
2940;SDS011;1480;51.456;6.670;2023-01-26T13:39:31;46.07;;;21.53;;
2940;SDS011;1480;51.456;6.670;2023-01-26T13:42:09;47.50;;;20.80;;
2940;SDS011;1480;51.456;6.670;2023-01-26T13:44:45;52.90;;;20.27;;
2940;SDS011;1480;51.456;6.670;2023-01-26T13:47:18;50.10;;;22.30;;
2940;SDS011;1480;51.456;6.670;2023-01-26T13:49:50;52.43;;;20.73;;
2940;SDS011;1480;51.456;6.670;2023-01-26T13:52:17;67.50;;;20.87;;
2940;SDS011;1480;51.456;6.670;2023-01-26T13:54:46;54.97;;;21.53;;
2940;SDS011;1480;51.456;6.670;2023-01-26T13:57:20;50.97;;;20.63;;
2940;SDS011;1480;51.456;6.670;2023-01-26T13:59:48;59.57;;;23.40;;
2940;SDS011;1480;51.456;6.670;2023-01-26T14:02:23;69.77;;;24.87;;
2940;SDS011;1480;51.456;6.670;2023-01-26T14:04:51;59.53;;;23.77;;
2940;SDS011;1480;51.456;6.670;2023-01-26T14:07:21;43.87;;;19.50;;
2940;SDS011;1480;51.456;6.670;2023-01-26T14:09:51;79.13;;;26.73;;
2940;SDS011;1480;51.456;6.670;2023-01-26T14:12:22;62.00;;;22.93;;
2940;SDS011;1480;51.456;6.670;2023-01-26T14:14:51;66.37;;;23.40;;
2940;SDS011;1480;51.456;6.670;2023-01-26T14:17:27;68.23;;;22.77;;
2940;SDS011;1480;51.456;6.670;2023-01-26T14:19:55;55.27;;;24.67;;
2940;SDS011;1480;51.456;6.670;2023-01-26T14:22:24;67.70;;;25.30;;
2940;SDS011;1480;51.456;6.670;2023-01-26T14:24:52;58.87;;;22.30;;
2940;SDS011;1480;51.456;6.670;2023-01-26T14:27:28;62.07;;;22.30;;
2940;SDS011;1480;51.456;6.670;2023-01-26T14:29:57;48.50;;;23.67;;
2940;SDS011;1480;51.456;6.670;2023-01-26T14:32:24;52.50;;;21.73;;
2940;SDS011;1480;51.456;6.670;2023-01-26T14:34:54;49.87;;;21.47;;
2940;SDS011;1480;51.456;6.670;2023-01-26T14:37:23;63.20;;;23.10;;
2940;SDS011;1480;51.456;6.670;2023-01-26T14:40:17;66.30;;;24.90;;
2940;SDS011;1480;51.456;6.670;2023-01-26T14:42:47;63.13;;;21.90;;
2940;SDS011;1480;51.456;6.670;2023-01-26T14:45:16;59.87;;;23.87;;
2940;SDS011;1480;51.456;6.670;2023-01-26T14:47:45;61.67;;;22.80;;
2940;SDS011;1480;51.456;6.670;2023-01-26T14:50:13;45.97;;;22.13;;
2940;SDS011;1480;51.456;6.670;2023-01-26T14:52:47;70.60;;;25.13;;
2940;SDS011;1480;51.456;6.670;2023-01-26T14:55:16;67.37;;;25.47;;
2940;SDS011;1480;51.456;6.670;2023-01-26T14:57:48;68.80;;;26.47;;
2940;SDS011;1480;51.456;6.670;2023-01-26T15:00:21;61.87;;;21.40;;
2940;SDS011;1480;51.456;6.670;2023-01-26T15:02:51;53.87;;;24.50;;
2940;SDS011;1480;51.456;6.670;2023-01-26T15:05:20;53.93;;;19.73;;
2940;SDS011;1480;51.456;6.670;2023-01-26T15:07:49;54.27;;;19.83;;
2940;SDS011;1480;51.456;6.670;2023-01-26T15:10:28;59.77;;;22.20;;
2940;SDS011;1480;51.456;6.670;2023-01-26T15:13:04;59.10;;;20.33;;
2940;SDS011;1480;51.456;6.670;2023-01-26T15:15:33;53.80;;;19.50;;
2940;SDS011;1480;51.456;6.670;2023-01-26T15:18:04;51.30;;;18.70;;
2940;SDS011;1480;51.456;6.670;2023-01-26T15:20:42;52.83;;;18.93;;
2940;SDS011;1480;51.456;6.670;2023-01-26T15:26:04;38.67;;;17.70;;
2940;SDS011;1480;51.456;6.670;2023-01-26T15:28:34;44.67;;;18.40;;
2940;SDS011;1480;51.456;6.670;2023-01-26T15:31:02;35.60;;;15.80;;